Cape Hatteras Natl Seashore, North Carolina
Current Conditions -  °F | °C
As of 12:51 AM on Sunday 23 Nov 2014 (Local Time) from KHSE Reporting Station
Clear Clear  
Wind Chill: 39°   Ceiling: Unl
Heat Index: 43°   Visibility: 10mi
Dew Point: 40°   Wind: 6mph
Humidity: 89%   Direction: 80°E
Pressure: 30.33"   Gusts: NA
Location:  35.22°N, 75.68°W
Report Text: KHSE 230551Z AUTO 08005KT 10SM CLR 06/04 A3033 RMK AO2 SLP268 T00610044 10072 20056 58021 TSNO
Loading
Personal Weather Stations






























Interactive Weather Map New forecast layout! Learn more

10-Day Weather Forecast

Advertisements
Track Severe Weather on mobile